Flight Track Log - Related Links

Times and Time Zones

All times are in EDT time to prevent confusion due to time zone crossing. See the UAL4401 flight status page for this flight to view local times or setup timezone preferences in your user account.

Time Position Orientation Groundspeed Altitude Reporting Facility
EDT Latitude Longitude Course Direction KTS MPH feet Rate Location/Type
Wed 03:41:06 PM 29.9639 -95.3433 247° West 153 176 700  Level Houston Center
Wed 03:41:55 PM 29.9306 -95.3714 216° Southwest 209 241 2,500 2,486 Climbing Houston Center
Wed 03:42:57 PM 29.9097 -95.4414 251° West 257 296 5,300 2,538 Climbing Houston Center
Wed 03:43:13 PM 29.9069 -95.4525 254° West 237 273 5,800 2,776 Climbing Houston Center
Wed 03:44:00 PM 29.8424 -95.7561 249° West  Level FlightAware Approximate
Wed 03:44:04 PM 29.8911 -95.5375 258° West 277 319 8,400  Level Houston Center
Wed 03:45:00 PM 29.8052 -95.8609 247° West  Level FlightAware Approximate
Wed 03:45:05 PM 29.8761 -95.6261 259° West 291 335 10,000  Level Houston Center
Wed 03:46:00 PM 29.7672 -95.9652 247° West  Level FlightAware Approximate
Wed 03:46:06 PM 29.8583 -95.7342 259° West 368 423 11,100  Level Houston Center
Wed 03:47:21 PM 29.8347 -95.8669 258° West 356 410 13,400 2,087 Climbing Houston Center
Wed 03:48:24 PM 29.8147 -95.9764 258° West 353 406 15,900 1,248 Climbing Houston Center
Wed 03:49:26 PM 29.7944 -96.0925 259° West 360 414 16,000 48 Climbing Houston Center
Wed 03:50:28 PM 29.7817 -96.2144 263° West 384 442 16,000  Level Houston Center
Wed 03:51:30 PM 29.7917 -96.3594 275° West 382 440 16,000  Level Houston Center
Wed 03:52:32 PM 29.8011 -96.4792 275° West 380 437 16,000  Level Houston Center
Wed 03:53:34 PM 29.8106 -96.6006 275° West 383 441 16,000  Level Houston Center
Wed 03:54:36 PM 29.8183 -96.7200 274° West 379 436 16,000  Level Houston Center
Wed 03:55:39 PM 29.8278 -96.8389 275° West 377 434 16,000  Level Houston Center
Wed 03:56:41 PM 29.8378 -96.9808 275° West 375 432 16,000 -145 Level Houston Center
Wed 03:57:43 PM 29.8467 -97.0992 275° West 373 429 15,700 -629 Descending Houston Center
Wed 03:58:45 PM 29.8550 -97.2164 275° West 370 426 14,700 -968 Descending Houston Center
Wed 03:59:47 PM 29.8631 -97.3381 274° West 379 436 13,700 -823 Descending Houston Center
Wed 04:00:49 PM 29.8708 -97.4544 274° West 370 426 13,000 -339 Descending Houston Center
Wed 04:01:51 PM 29.8794 -97.5947 274° West 368 423 13,000  Level Houston Center
Wed 04:02:28 PM 29.8842 -97.6681 274° West 370 426 13,000 98 Level Houston Center
Wed 04:02:52 PM 29.8886 -97.7133 276° West 371 427 13,100  Climbing Houston Center
Wed 04:03:53 PM 29.8967 -97.8403 274° West 374 430 13,000 -443 Descending Houston Center
Wed 04:04:54 PM 29.8611 -97.9508 250° West 364 419 12,200 -893 Descending Houston Center
Wed 04:05:54 PM 29.8164 -98.0553 244° Southwest 364 419 11,200 -992 Descending Houston Center
Wed 04:06:55 PM 29.7736 -98.1569 244° Southwest 356 410 10,200 -836 Descending Houston Center
Wed 04:07:56 PM 29.7372 -98.2408 243° Southwest 274 315 9,500 -1,033 Descending Houston Center
Wed 04:08:57 PM 29.7044 -98.3169 244° Southwest 255 293 8,100 -1,131 Descending Houston Center
Wed 04:09:58 PM 29.6700 -98.3981 244° Southwest 260 299 7,200 -1,343 Descending Houston Center
Wed 04:11:11 PM 29.6633 -98.4889 265° West 263 303 5,100 -1,574 Descending Houston Center
Wed 04:12:00 PM 29.6981 -98.5439 306° West 271 312 4,000 -1,156 Descending Houston Center
Wed 04:13:00 PM 29.6869 -98.6078 259° West 228 262 3,000 -880 Descending Houston Center
Wed 04:13:15 PM 29.6750 -98.6100 189° South 220 253 2,900  Descending Houston Center
Wed 04:14:01 PM 29.6308 -98.5903 159° South 193 222 3,000  Climbing Houston Center
Wed 04:14:17 PM 29.6194 -98.5831 151° Southeast 201 231 2,900 -590 Descending Houston Center
Wed 04:15:02 PM 29.5961 -98.5536 132° Southeast 153 176 2,400 -677 Descending Houston Center
Wed 04:15:19 PM 29.5900 -98.5450 129° Southeast 157 181 2,200 -706 Descending Houston Center

Login

Don't have an account? Register now (free) for customized features, flight alerts, and more!